Skip Navigation Links Skip Navigation Links

Current Weather

Kuwait International Airport, Kuwait

For information only: do not use for flight planning or navigation.
Latest weather
Observation time Thursday, October 17, 2019 8:00 AM AST
Local time Thursday, October 17, 2019 9:02 AM AST
Flight conditions Instrument Meteorological Conditions
Winds
Wind direction West-Northwest (290°)
Wind speed 3 mph
Visibility 2.5 mi.
Present weather light dust
Sky condition
Ceiling unlimited
Temperature 79°F
Dewpoint 39°F
Altimeter 30.00 in.Hg
Derived measurements
Relative humidity 24%
Heat index 79°F
Density altitude 1302 ft.
Remarks
No significant changes expected in the next two hours.
METAR OKBK 170500Z 29003KT 4000 -DU NSC 26/04 Q1016 NOSIG

Settings

Location code

InnerDrive.Weather 4.0.6770.0 Release CLR 4.0.30319.42000
Copyright ©2018 Inner Drive Technology. All rights reserved. Portions Copyright ©1986-2018 David Braverman.

Find weather

Site navigation


Skip Navigation Links

Place info

Page info

PayPal - The safer, easier way to pay online!

Return home.

Copyright ©2019 Inner Drive Technology. Purveyors of fine, hand-crafted computer software. Page printed 2019-10-17T06:02:44 UTC.